Time;durP1;ratioP1;P1;durP2;ratioP2;P2;SDS_P1;SDS_P2;PMS_P1;PMS_P2;Temp;Humidity;BMP_temperature;BMP_pressure;BME280_temperature;BME280_humidity;BME280_pressure;Samples;Min_cycle;Max_cycle;Signal;HPM_P1;HPM_P2
2022/01/04 00:00:34;;;;;;;16.65;8.55;;;;;;;6.09;100.00;97839.27;2187620;81;21017;-77
2022/01/04 00:03:36;;;;;;;17.77;8.23;;;;;;;6.10;100.00;97831.78;2187641;81;21037;-78
2022/01/04 00:06:37;;;;;;;12.30;8.05;;;;;;;6.13;100.00;97830.16;2187943;81;21682;-78
2022/01/04 00:09:41;;;;;;;20.57;9.00;;;;;;;6.15;100.00;97823.80;2187858;81;21069;-77
2022/01/04 00:16:00;;;;;;;16.93;9.03;;;;;;;6.15;100.00;97824.30;2120273;84;21081;-77
2022/01/04 00:19:01;;;;;;;19.20;10.50;;;;;;;6.14;100.00;97813.58;2120456;84;20994;-78
2022/01/04 00:22:04;;;;;;;17.98;8.98;;;;;;;6.13;100.00;97815.38;2120242;84;21029;-78
2022/01/04 00:25:05;;;;;;;14.98;9.63;;;;;;;6.10;100.00;97815.70;2120208;84;21054;-78
2022/01/04 00:28:08;;;;;;;17.50;9.25;;;;;;;6.08;100.00;97811.66;2120318;84;21580;-78
2022/01/04 00:31:09;;;;;;;19.20;8.63;;;;;;;6.06;100.00;97804.54;2120455;84;20994;-78
2022/01/04 00:34:09;;;;;;;18.85;9.18;;;;;;;6.04;100.00;97803.41;2120434;84;21484;-78
2022/01/04 00:37:10;;;;;;;23.57;10.75;;;;;;;6.04;100.00;97800.02;2120415;84;21009;-77
2022/01/04 00:40:11;;;;;;;16.85;9.23;;;;;;;6.03;100.00;97791.37;2118696;84;21529;-78
2022/01/04 00:43:12;;;;;;;25.55;10.28;;;;;;;6.04;100.00;97777.92;2126103;84;21045;-78
2022/01/04 00:46:16;;;;;;;22.32;8.75;;;;;;;6.03;100.00;97784.07;2126396;84;20978;-77
2022/01/04 00:49:17;;;;;;;15.80;9.33;;;;;;;6.02;100.00;97791.55;2126010;84;20982;-77
2022/01/04 00:52:18;;;;;;;17.95;9.18;;;;;;;6.01;100.00;97783.44;2126336;84;20991;-77
2022/01/04 00:55:19;;;;;;;22.90;9.55;;;;;;;6.00;100.00;97785.23;2126422;84;21533;-78
2022/01/04 00:58:20;;;;;;;17.48;8.65;;;;;;;6.01;100.00;97780.84;2126239;84;21009;-77
2022/01/04 01:01:21;;;;;;;16.40;8.63;;;;;;;6.02;100.00;97779.86;2126600;84;21005;-77
2022/01/04 01:04:22;;;;;;;13.05;7.80;;;;;;;6.02;100.00;97774.66;2126377;84;21033;-77
2022/01/04 01:07:23;;;;;;;15.43;8.75;;;;;;;6.01;100.00;97771.26;2126373;84;20958;-77
2022/01/04 01:13:36;;;;;;;17.52;9.18;;;;;;;5.99;100.00;97774.03;2126488;84;21560;-78
2022/01/04 01:16:37;;;;;;;14.28;9.15;;;;;;;6.02;100.00;97772.87;2126496;84;21049;-78
2022/01/04 01:19:38;;;;;;;16.65;9.40;;;;;;;6.03;100.00;97770.58;2126470;84;21044;-78
2022/01/04 01:22:39;;;;;;;14.98;8.18;;;;;;;6.04;100.00;97766.23;2126491;84;20943;-78
2022/01/04 01:25:40;;;;;;;14.53;8.00;;;;;;;6.01;100.00;97767.36;2126384;84;21092;-77
2022/01/04 01:28:40;;;;;;;14.35;7.35;;;;;;;6.00;100.00;97765.75;2126600;84;21045;-77
2022/01/04 01:31:41;;;;;;;15.80;7.85;;;;;;;6.00;100.00;97756.65;2126354;84;21088;-78
2022/01/04 01:34:42;;;;;;;18.85;8.53;;;;;;;6.01;100.00;97752.26;2126589;84;21055;-77
2022/01/04 01:37:43;;;;;;;15.63;8.43;;;;;;;6.02;100.00;97751.27;2126437;84;21097;-77
2022/01/04 01:40:44;;;;;;;14.25;7.00;;;;;;;6.02;100.00;97733.89;2135031;83;21539;-77
2022/01/04 01:43:47;;;;;;;11.65;7.37;;;;;;;6.04;100.00;97728.05;2143023;83;21021;-77
2022/01/04 01:46:47;;;;;;;15.95;7.47;;;;;;;6.06;100.00;97720.08;2143131;83;21480;-78
2022/01/04 01:49:49;;;;;;;16.20;7.35;;;;;;;6.07;100.00;97712.59;2142992;83;21087;-77
2022/01/04 01:52:50;;;;;;;16.48;8.58;;;;;;;6.07;100.00;97718.59;2143283;83;21418;-76
2022/01/04 01:55:50;;;;;;;16.45;7.95;;;;;;;6.09;100.00;97712.73;2142889;83;21383;-77
2022/01/04 01:58:51;;;;;;;11.88;7.30;;;;;;;6.09;100.00;97716.63;2142891;83;21024;-78
2022/01/04 02:01:52;;;;;;;15.03;7.08;;;;;;;6.07;100.00;97706.09;2143004;83;21024;-78
2022/01/04 02:04:53;;;;;;;15.55;7.70;;;;;;;6.05;100.00;97705.47;2143002;83;20979;-78
2022/01/04 02:07:53;;;;;;;18.60;9.13;;;;;;;6.05;100.00;97709.37;2143029;83;21068;-77
2022/01/04 02:10:54;;;;;;;15.83;7.90;;;;;;;6.04;100.00;97709.86;2142825;83;20965;-77
2022/01/04 02:13:55;;;;;;;15.32;7.78;;;;;;;6.05;100.00;97708.06;2143005;83;21021;-78
2022/01/04 02:16:56;;;;;;;17.55;7.97;;;;;;;6.05;100.00;97701.57;2142994;83;21056;-77
2022/01/04 02:19:57;;;;;;;15.23;7.30;;;;;;;6.04;100.00;97699.47;2142958;83;21001;-77
2022/01/04 02:22:57;;;;;;;16.70;7.15;;;;;;;6.03;100.00;97700.91;2142881;83;21032;-77
2022/01/04 02:25:58;;;;;;;13.48;7.10;;;;;;;6.01;100.00;97700.29;2143074;83;21070;-77
2022/01/04 02:28:59;;;;;;;16.25;6.87;;;;;;;6.00;100.00;97707.27;2142858;83;21094;-77
2022/01/04 02:32:00;;;;;;;13.75;7.28;;;;;;;5.99;100.00;97701.77;2142947;83;21584;-77
2022/01/04 02:35:00;;;;;;;11.50;6.28;;;;;;;5.97;100.00;97698.55;2142987;83;21001;-78
2022/01/04 02:38:01;;;;;;;14.45;7.17;;;;;;;5.95;100.00;97703.11;2142935;83;21346;-78
2022/01/04 02:41:02;;;;;;;17.07;8.23;;;;;;;5.93;100.00;97696.77;2133925;83;21081;-77
2022/01/04 02:44:04;;;;;;;19.17;7.03;;;;;;;5.91;100.00;97692.24;2126772;83;20986;-78
2022/01/04 02:47:04;;;;;;;12.40;6.62;;;;;;;5.90;100.00;97691.92;2126727;84;21065;-77
2022/01/04 02:50:05;;;;;;;14.60;7.45;;;;;;;5.89;100.00;97680.38;2126777;83;21053;-78
2022/01/04 02:53:06;;;;;;;14.20;6.58;;;;;;;5.86;100.00;97681.55;2126628;83;20995;-77
2022/01/04 02:56:07;;;;;;;11.80;6.55;;;;;;;5.86;100.00;97675.55;2126823;83;20943;-78
2022/01/04 02:59:08;;;;;;;12.60;5.75;;;;;;;5.85;100.00;97669.55;2126716;83;21017;-77
2022/01/04 03:02:08;;;;;;;10.13;6.40;;;;;;;5.85;100.00;97668.70;2126579;84;21038;-78
2022/01/04 03:05:09;;;;;;;13.30;6.03;;;;;;;5.84;100.00;97667.91;2126825;84;21001;-77
2022/01/04 03:08:10;;;;;;;16.17;6.85;;;;;;;5.84;100.00;97664.00;2126590;83;21038;-77
2022/01/04 03:11:11;;;;;;;13.98;6.40;;;;;;;5.84;100.00;97664.50;2126624;83;21113;-77
2022/01/04 03:14:12;;;;;;;16.48;8.03;;;;;;;5.81;100.00;97650.57;2126944;83;21009;-77
2022/01/04 03:17:12;;;;;;;14.35;6.20;;;;;;;5.81;100.00;97657.06;2126534;84;20982;-77
2022/01/04 03:20:13;;;;;;;17.32;7.53;;;;;;;5.79;100.00;97652.05;2126784;83;20978;-77
2022/01/04 03:23:14;;;;;;;16.07;7.30;;;;;;;5.74;100.00;97640.55;2126550;83;20997;-77
2022/01/04 03:26:15;;;;;;;10.30;5.70;;;;;;;5.78;100.00;97641.34;2126698;83;21049;-78
2022/01/04 03:29:16;;;;;;;17.10;6.58;;;;;;;5.76;100.00;97632.92;2126691;83;21202;-79
2022/01/04 03:32:16;;;;;;;13.25;6.95;;;;;;;5.74;100.00;97632.77;2126697;84;20939;-80
2022/01/04 03:35:17;;;;;;;12.18;6.65;;;;;;;5.68;100.00;97626.00;2126605;84;21052;-79
2022/01/04 03:38:19;;;;;;;10.95;5.53;;;;;;;5.65;100.00;97617.23;2126754;84;21013;-77
2022/01/04 03:41:20;;;;;;;11.03;6.00;;;;;;;5.66;100.00;97610.26;2126501;84;21720;-77
2022/01/04 03:44:20;;;;;;;11.75;6.00;;;;;;;5.62;100.00;97603.81;2126669;84;20986;-77
2022/01/04 03:47:21;;;;;;;15.25;6.17;;;;;;;5.55;100.00;97602.39;2126691;83;21002;-77
2022/01/04 03:50:22;;;;;;;6.53;5.45;;;;;;;5.54;100.00;97602.08;2126563;83;21049;-77
2022/01/04 03:53:23;;;;;;;10.60;6.05;;;;;;;5.53;100.00;97603.56;2126677;83;21017;-77
2022/01/04 03:56:23;;;;;;;11.93;6.42;;;;;;;5.48;100.00;97600.17;2126813;83;21009;-77
2022/01/04 03:59:24;;;;;;;9.48;5.80;;;;;;;5.46;100.00;97598.25;2126502;83;21623;-77
2022/01/04 04:02:25;;;;;;;8.15;5.20;;;;;;;5.44;100.00;97598.92;2126672;83;21065;-77
2022/01/04 04:05:26;;;;;;;9.08;6.30;;;;;;;5.42;100.00;97590.50;2126564;84;21056;-77
2022/01/04 04:08:26;;;;;;;10.98;6.37;;;;;;;5.39;100.00;97586.48;2126718;83;21070;-77
2022/01/04 04:11:27;;;;;;;11.35;5.92;;;;;;;5.39;100.00;97583.04;2126542;84;21346;-77
2022/01/04 04:14:29;;;;;;;10.72;6.05;;;;;;;5.41;100.00;97577.20;2126748;84;21546;-77
2022/01/04 04:17:30;;;;;;;9.18;6.40;;;;;;;5.41;100.00;97577.20;2126634;84;20990;-77
2022/01/04 04:20:31;;;;;;;8.63;6.05;;;;;;;5.44;100.00;97582.05;2126677;84;21002;-77
2022/01/04 04:23:31;;;;;;;7.75;5.10;;;;;;;5.46;100.00;97575.38;2126665;83;21014;-77
2022/01/04 04:26:32;;;;;;;7.97;5.20;;;;;;;5.49;100.00;97573.25;2126808;83;21081;-77
2022/01/04 04:29:33;;;;;;;10.88;5.03;;;;;;;5.53;100.00;97575.80;2126585;84;20966;-78
2022/01/04 04:32:34;;;;;;;7.47;5.03;;;;;;;5.56;100.00;97569.44;2127236;84;21021;-77
2022/01/04 04:35:35;;;;;;;8.18;4.80;;;;;;;5.59;100.00;97573.81;2126796;84;21030;-78
2022/01/04 04:38:36;;;;;;;8.73;5.33;;;;;;;5.60;100.00;97568.13;2127053;84;21161;-78
2022/01/04 04:41:36;;;;;;;8.50;5.65;;;;;;;5.63;100.00;97566.47;2120768;84;21076;-78
2022/01/04 04:44:37;;;;;;;9.85;5.20;;;;;;;5.67;100.00;97569.05;2116805;84;20975;-78
2022/01/04 04:47:38;;;;;;;6.92;5.40;;;;;;;5.68;100.00;97562.37;2116547;84;21053;-77
2022/01/04 04:50:39;;;;;;;7.28;5.28;;;;;;;5.67;100.00;97558.16;2116453;84;21099;-77
2022/01/04 04:53:40;;;;;;;7.17;4.58;;;;;;;5.67;100.00;97546.48;2117015;84;21485;-77
2022/01/04 04:56:41;;;;;;;6.85;4.97;;;;;;;5.66;100.00;97540.14;2116863;84;21038;-77
2022/01/04 04:59:41;;;;;;;9.10;5.40;;;;;;;5.66;100.00;97540.14;2116769;84;21094;-78
2022/01/04 05:02:42;;;;;;;9.13;6.40;;;;;;;5.62;100.00;97540.98;2117201;84;21030;-79
2022/01/04 05:05:43;;;;;;;11.70;6.85;;;;;;;5.59;100.00;97543.95;2116889;84;21039;-77
2022/01/04 05:08:44;;;;;;;12.07;6.25;;;;;;;5.57;100.00;97542.00;2116877;84;20990;-77
2022/01/04 05:11:45;;;;;;;10.40;6.67;;;;;;;5.53;100.00;97538.64;2117020;84;20963;-77
2022/01/04 05:14:46;;;;;;;12.15;7.40;;;;;;;5.49;100.00;97536.09;2116789;84;21101;-78
2022/01/04 05:17:47;;;;;;;11.28;7.65;;;;;;;5.44;100.00;97537.91;2116841;84;21094;-78
2022/01/04 05:20:48;;;;;;;11.20;8.05;;;;;;;5.38;100.00;97545.09;2116914;84;21542;-77
2022/01/04 05:23:50;;;;;;;11.75;7.60;;;;;;;5.33;100.00;97535.24;2116763;84;21015;-83
2022/01/04 05:26:51;;;;;;;13.22;8.00;;;;;;;5.27;100.00;97532.03;2116909;84;21002;-84
2022/01/04 05:29:51;;;;;;;10.65;8.03;;;;;;;5.24;100.00;97523.80;2096857;84;21148;-82
2022/01/04 05:32:52;;;;;;;11.10;8.33;;;;;;;5.22;100.00;97516.20;2116997;84;21501;-81
2022/01/04 05:35:54;;;;;;;12.82;9.38;;;;;;;5.24;100.00;97523.31;2117112;84;21022;-81
2022/01/04 05:38:54;;;;;;;12.28;7.97;;;;;;;5.26;100.00;97520.54;2116881;84;21058;-80
2022/01/04 05:41:55;;;;;;;12.53;8.40;;;;;;;5.25;100.00;97517.14;2116674;84;21125;-82
2022/01/04 05:44:56;;;;;;;10.88;7.97;;;;;;;5.28;100.00;97511.59;2116807;84;21536;-77
2022/01/04 05:47:57;;;;;;;11.05;8.45;;;;;;;5.28;100.00;97506.89;2117158;84;21069;-76
2022/01/04 05:50:58;;;;;;;12.05;8.45;;;;;;;5.22;100.00;97501.13;2117239;84;21093;-77
2022/01/04 05:53:59;;;;;;;13.80;8.48;;;;;;;5.12;100.00;97502.16;2117071;84;21013;-78
2022/01/04 05:56:59;;;;;;;15.58;8.63;;;;;;;5.04;100.00;97502.23;2116951;84;21078;-78
2022/01/04 06:00:00;;;;;;;13.95;8.45;;;;;;;4.97;100.00;97500.00;2117017;83;21616;-80
2022/01/04 06:03:01;;;;;;;15.50;9.05;;;;;;;4.92;100.00;97493.22;2117044;84;21009;-78
2022/01/04 06:06:03;;;;;;;13.55;8.58;;;;;;;4.85;100.00;97493.13;2116922;84;21089;-81
2022/01/04 06:09:04;;;;;;;13.68;9.40;;;;;;;4.82;100.00;97498.63;2116923;84;21074;-79
2022/01/04 06:14:50;;;;;;;13.90;8.73;;;;;;;4.78;100.00;97499.97;2117112;84;21051;-80
2022/01/04 06:15:07;;;;;;;14.25;9.18;;;;;;;4.75;100.00;97491.70;2114026;84;21620;-79
2022/01/04 06:18:08;;;;;;;13.10;8.80;;;;;;;4.70;100.00;97488.34;2116954;84;21121;-80
2022/01/04 06:21:10;;;;;;;13.68;9.78;;;;;;;4.67;100.00;97496.48;2117119;84;20986;-82
2022/01/04 06:24:11;;;;;;;15.23;10.38;;;;;;;4.64;100.00;97497.30;2116929;84;21086;-81
2022/01/04 06:27:12;;;;;;;16.87;10.88;;;;;;;4.63;100.00;97494.39;2117003;84;21021;-81
2022/01/04 06:30:13;;;;;;;14.83;11.70;;;;;;;4.60;100.00;97491.66;2117113;83;21034;-81
2022/01/04 06:33:14;;;;;;;19.92;11.97;;;;;;;4.61;100.00;97487.28;2117004;84;21050;-81
2022/01/04 06:36:15;;;;;;;19.35;11.83;;;;;;;4.60;100.00;97482.58;2117143;84;20981;-81
2022/01/04 06:39:15;;;;;;;17.45;12.33;;;;;;;4.61;100.00;97480.30;2116880;83;21053;-81
2022/01/04 06:42:16;;;;;;;23.92;15.48;;;;;;;4.64;100.00;97480.44;2122572;84;21068;-81
2022/01/04 06:45:17;;;;;;;18.32;13.40;;;;;;;4.65;100.00;97464.70;2126691;84;21010;-80
2022/01/04 06:48:18;;;;;;;19.37;13.22;;;;;;;4.69;100.00;97474.27;2126753;83;21524;-81
2022/01/04 06:51:19;;;;;;;21.60;13.72;;;;;;;4.71;100.00;97471.81;2126406;83;21001;-81
2022/01/04 06:54:20;;;;;;;20.48;14.65;;;;;;;4.74;100.00;97464.17;2126763;83;21061;-81
2022/01/04 06:57:20;;;;;;;17.55;13.78;;;;;;;4.79;100.00;97463.98;2126578;84;21013;-80
2022/01/04 07:00:21;;;;;;;21.97;14.73;;;;;;;4.86;100.00;97456.31;2126654;83;20997;-80
2022/01/04 07:03:22;;;;;;;21.25;15.45;;;;;;;4.90;100.00;97447.20;2127080;83;21492;-83
2022/01/04 07:06:23;;;;;;;21.40;14.15;;;;;;;4.99;100.00;97440.16;2127122;83;20978;-84
2022/01/04 07:09:23;;;;;;;20.10;13.45;;;;;;;5.09;100.00;97436.82;2126859;83;21547;-85
2022/01/04 07:12:25;;;;;;;21.75;13.35;;;;;;;5.17;100.00;97428.97;2126814;83;21049;-85
2022/01/04 07:15:26;;;;;;;22.37;14.63;;;;;;;5.25;100.00;97426.80;2126752;84;21053;-87
2022/01/04 07:18:27;;;;;;;20.55;13.18;;;;;;;5.32;100.00;97429.81;2126817;84;20982;-86
2022/01/04 07:21:28;;;;;;;19.57;12.95;;;;;;;5.40;100.00;97424.54;2126780;83;21068;-87
2022/01/04 07:24:29;;;;;;;18.23;12.95;;;;;;;5.51;100.00;97423.78;2126905;84;20966;-84
2022/01/04 07:27:29;;;;;;;18.15;13.30;;;;;;;5.57;100.00;97419.95;2128161;83;21012;-85
2022/01/04 07:30:30;;;;;;;21.73;13.08;;;;;;;5.68;100.00;97415.63;2128246;84;21029;-84
2022/01/04 07:33:31;;;;;;;20.17;13.85;;;;;;;5.76;100.00;97417.80;2127703;83;21053;-86
2022/01/04 07:36:32;;;;;;;22.17;13.62;;;;;;;5.84;100.00;97415.11;2127459;84;21524;-86
2022/01/04 07:39:33;;;;;;;22.62;15.10;;;;;;;5.91;100.00;97416.03;2126791;83;21066;-86
2022/01/04 07:42:34;;;;;;;18.00;13.85;;;;;;;5.98;100.00;97412.53;2121746;83;21101;-84
2022/01/04 07:45:35;;;;;;;24.02;15.10;;;;;;;6.03;100.00;97406.78;2117097;83;21010;-86
2022/01/04 07:48:36;;;;;;;21.80;14.60;;;;;;;6.09;100.00;97403.45;2116936;84;21529;-85
2022/01/04 07:51:37;;;;;;;23.73;14.75;;;;;;;6.17;100.00;97403.85;2117081;84;21489;-85
2022/01/04 07:54:37;;;;;;;17.75;13.30;;;;;;;6.25;100.00;97386.84;2117819;84;21014;-86
2022/01/04 07:57:42;;;;;;;26.25;14.10;;;;;;;6.33;100.00;97392.44;2117042;84;21002;-85
2022/01/04 08:00:43;;;;;;;26.25;15.93;;;;;;;6.40;100.00;97388.91;2116878;84;20986;-84
2022/01/04 08:03:43;;;;;;;28.77;17.92;;;;;;;6.48;100.00;97386.16;2116988;84;21053;-84
2022/01/04 08:06:44;;;;;;;22.52;15.80;;;;;;;6.54;100.00;97382.83;2116765;84;21113;-84
2022/01/04 08:09:45;;;;;;;24.75;17.07;;;;;;;6.58;100.00;97381.15;2117100;84;20995;-83
2022/01/04 08:12:46;;;;;;;19.42;13.22;;;;;;;6.63;100.00;97371.00;2117296;84;21025;-85
2022/01/04 08:15:47;;;;;;;23.62;16.12;;;;;;;6.68;100.00;97366.06;2116757;84;21025;-84
2022/01/04 08:18:48;;;;;;;20.92;13.03;;;;;;;6.71;100.00;97361.28;2116862;84;21037;-85
2022/01/04 08:21:49;;;;;;;24.20;13.22;;;;;;;6.76;100.00;97355.50;2117083;84;20951;-85
2022/01/04 08:24:50;;;;;;;24.00;14.70;;;;;;;6.79;100.00;97355.14;2116970;84;21060;-85
2022/01/04 08:27:52;;;;;;;24.18;14.05;;;;;;;6.84;100.00;97348.86;2117236;84;21061;-85
2022/01/04 08:30:53;;;;;;;23.70;13.72;;;;;;;6.90;100.00;97330.40;2117010;84;21014;-84
2022/01/04 08:33:54;;;;;;;17.12;13.75;;;;;;;6.96;100.00;97323.14;2116782;84;21117;-83
2022/01/04 08:36:55;;;;;;;19.87;13.15;;;;;;;7.05;100.00;97318.90;2116794;84;21046;-84
2022/01/04 08:39:55;;;;;;;24.60;13.18;;;;;;;7.12;100.00;97311.91;2116799;84;21053;-88
2022/01/04 08:42:56;;;;;;;19.92;13.90;;;;;;;7.22;100.00;97309.46;2123009;84;21065;-83
2022/01/04 08:45:57;;;;;;;22.48;12.50;;;;;;;7.30;100.00;97293.69;2126506;83;21018;-86
2022/01/04 08:48:58;;;;;;;19.40;12.10;;;;;;;7.38;100.00;97285.22;2126612;83;21112;-82
2022/01/04 08:51:59;;;;;;;22.67;13.65;;;;;;;7.46;100.00;97287.36;2126573;83;20954;-83
2022/01/04 08:55:00;;;;;;;20.50;12.95;;;;;;;7.53;100.00;97278.58;2126508;84;21113;-82
2022/01/04 08:58:00;;;;;;;19.00;12.70;;;;;;;7.63;100.00;97276.41;2126264;83;21094;-82
2022/01/04 09:01:02;;;;;;;19.50;11.45;;;;;;;7.73;100.00;97268.72;2126547;84;21457;-84
2022/01/04 09:04:06;;;;;;;18.42;12.07;;;;;;;7.79;100.00;97264.84;2126472;84;20997;-82
2022/01/04 09:07:06;;;;;;;15.30;10.45;;;;;;;7.89;100.00;97256.13;2126438;84;21129;-82
2022/01/04 09:10:07;;;;;;;16.35;9.58;;;;;;;7.99;100.00;97251.34;2126555;83;21022;-82
2022/01/04 09:13:14;;;;;;;14.55;7.80;;;;;;;8.07;100.00;97245.64;2126470;83;21013;-82
2022/01/04 09:19:29;;;;;;;15.83;10.43;;;;;;;8.22;100.00;97218.86;2126600;84;21085;-83
2022/01/04 09:22:30;;;;;;;13.53;10.32;;;;;;;8.29;100.00;97217.06;2126824;83;21093;-83
2022/01/04 09:25:31;;;;;;;12.13;9.98;;;;;;;8.33;100.00;97214.37;2126707;84;21078;-83
2022/01/04 09:28:32;;;;;;;12.85;9.58;;;;;;;8.38;100.00;97212.47;2127009;83;21569;-82
2022/01/04 09:31:33;;;;;;;10.13;8.08;;;;;;;8.43;100.00;97206.97;2126698;84;20971;-85
2022/01/04 09:34:33;;;;;;;11.83;7.25;;;;;;;8.50;100.00;97199.94;2126672;83;21048;-84
2022/01/04 09:37:34;;;;;;;11.55;7.05;;;;;;;8.55;100.00;97197.51;2126726;83;21069;-85
2022/01/04 09:40:35;;;;;;;11.97;7.35;;;;;;;8.62;100.00;97176.63;2126812;83;21067;-85
2022/01/04 09:43:36;;;;;;;10.90;6.55;;;;;;;8.62;100.00;97176.63;2138969;83;21104;-85
2022/01/04 09:46:37;;;;;;;7.45;5.40;;;;;;;8.73;100.00;97184.33;2143047;83;21010;-90
2022/01/04 09:49:38;;;;;;;6.17;5.58;;;;;;;8.82;100.00;97183.10;2143082;83;21487;-86
2022/01/04 09:52:39;;;;;;;8.73;5.35;;;;;;;8.98;100.00;97170.11;2143239;83;20990;-85
2022/01/04 09:55:42;;;;;;;9.88;6.03;;;;;;;8.98;100.00;97170.11;2142947;83;21021;-86
2022/01/04 09:58:42;;;;;;;8.08;5.70;;;;;;;9.05;100.00;97166.47;2142827;83;21595;-88
2022/01/04 10:01:45;;;;;;;8.95;6.08;;;;;;;9.11;100.00;97176.06;2143070;83;20950;-87
2022/01/04 10:04:45;;;;;;;10.98;6.17;;;;;;;9.18;100.00;97174.74;2142992;83;21080;-86
2022/01/04 10:07:46;;;;;;;9.20;5.83;;;;;;;9.22;100.00;97171.20;2143067;83;20977;-87
2022/01/04 10:10:47;;;;;;;12.15;6.72;;;;;;;9.27;100.00;97160.95;2143179;83;21024;-86
2022/01/04 10:13:48;;;;;;;7.78;5.17;;;;;;;9.32;100.00;97168.43;2143189;83;21048;-84
2022/01/04 10:16:49;;;;;;;7.15;5.15;;;;;;;9.36;100.00;97167.53;2143081;83;20989;-88
2022/01/04 10:19:50;;;;;;;8.70;4.67;;;;;;;9.34;100.00;97166.44;2142914;83;21579;-86
2022/01/04 10:22:51;;;;;;;4.50;3.70;;;;;;;9.34;100.00;97163.82;2142526;83;21449;-84
2022/01/04 10:25:52;;;;;;;4.80;3.77;;;;;;;9.37;100.00;97154.25;2143002;83;21072;-81
2022/01/04 10:28:53;;;;;;;6.75;4.67;;;;;;;9.39;100.00;97139.67;2142956;83;20985;-84
2022/01/04 10:31:55;;;;;;;7.65;4.92;;;;;;;9.40;100.00;97137.35;2142767;83;21547;-84
2022/01/04 10:34:56;;;;;;;7.67;4.83;;;;;;;9.40;100.00;97132.12;2143160;83;21036;-84
2022/01/04 10:37:57;;;;;;;6.22;4.62;;;;;;;9.41;100.00;97128.50;2142925;83;21112;-87
2022/01/04 10:40:59;;;;;;;6.45;4.40;;;;;;;9.41;100.00;97121.46;2142962;83;21587;-83
2022/01/04 10:44:00;;;;;;;6.00;4.67;;;;;;;9.41;100.00;97125.89;2129668;83;21069;-84
2022/01/04 10:47:01;;;;;;;5.33;3.92;;;;;;;9.40;100.00;97115.14;2126757;84;21109;-83
2022/01/04 10:50:02;;;;;;;5.53;4.22;;;;;;;9.40;100.00;97106.00;2126946;84;20997;-84
2022/01/04 10:53:03;;;;;;;6.28;4.35;;;;;;;9.40;100.00;97103.39;2126614;84;20951;-81
2022/01/04 10:56:03;;;;;;;6.47;4.60;;;;;;;9.37;100.00;97096.78;2126798;84;21299;-81
2022/01/04 10:59:04;;;;;;;6.55;5.08;;;;;;;9.33;100.00;97083.86;2126788;83;21045;-82
2022/01/04 11:02:05;;;;;;;8.75;5.10;;;;;;;9.31;100.00;97085.86;2126747;83;21070;-82
2022/01/04 11:05:06;;;;;;;7.22;6.25;;;;;;;9.29;100.00;97083.97;2126808;84;21569;-83
2022/01/04 11:08:09;;;;;;;6.97;6.25;;;;;;;9.29;100.00;97076.64;2126618;83;21009;-81
2022/01/04 11:11:10;;;;;;;7.72;5.55;;;;;;;9.28;100.00;97060.17;2127039;84;21029;-80
2022/01/04 11:14:10;;;;;;;5.92;4.67;;;;;;;9.26;100.00;97041.31;2126565;84;21077;-81
2022/01/04 11:17:11;;;;;;;6.95;4.87;;;;;;;9.24;100.00;97034.20;2126766;83;22134;-80
2022/01/04 11:20:12;;;;;;;5.20;4.15;;;;;;;9.18;100.00;97032.42;2126666;84;21041;-80
2022/01/04 11:23:13;;;;;;;5.37;4.28;;;;;;;9.17;100.00;97018.28;2126724;83;21006;-80
2022/01/04 11:26:14;;;;;;;6.33;3.80;;;;;;;9.12;100.00;97011.86;2126826;84;21045;-80
2022/01/04 11:29:15;;;;;;;9.80;5.53;;;;;;;9.10;100.00;97006.56;2126688;84;21074;-79
2022/01/04 11:32:16;;;;;;;10.43;8.08;;;;;;;9.04;100.00;97003.48;2136060;83;20961;-79
2022/01/04 11:35:19;;;;;;;10.98;7.70;;;;;;;8.99;100.00;96991.08;2142740;83;20946;-82
2022/01/04 11:38:19;;;;;;;13.60;7.58;;;;;;;8.95;100.00;96978.13;2142898;83;21021;-81
2022/01/04 11:41:20;;;;;;;7.85;6.75;;;;;;;8.92;100.00;96972.04;2142952;83;21057;-81
2022/01/04 11:44:21;;;;;;;15.10;8.43;;;;;;;8.89;100.00;96969.06;2137055;82;21505;-81
2022/01/04 11:47:22;;;;;;;13.75;9.10;;;;;;;8.87;100.00;96956.70;2136265;83;21024;-80
2022/01/04 11:50:25;;;;;;;9.45;6.72;;;;;;;8.82;100.00;96949.52;2136017;83;21085;-81
2022/01/04 11:53:26;;;;;;;7.72;5.67;;;;;;;8.79;100.00;96939.01;2136089;83;21619;-81
2022/01/04 11:56:26;;;;;;;11.80;5.37;;;;;;;8.76;100.00;96931.58;2136464;83;20962;-81
2022/01/04 11:59:27;;;;;;;5.60;4.05;;;;;;;8.73;100.00;96930.70;2136077;83;22109;-82
2022/01/04 12:02:28;;;;;;;4.85;3.95;;;;;;;8.72;100.00;96927.80;2136599;83;21547;-81
2022/01/04 12:05:29;;;;;;;8.58;4.37;;;;;;;8.68;100.00;96917.98;2136230;83;21010;-81
2022/01/04 12:08:30;;;;;;;4.90;4.00;;;;;;;8.65;100.00;96912.69;2136068;83;21599;-81
2022/01/04 12:11:31;;;;;;;4.78;3.60;;;;;;;8.69;100.00;96905.27;2136042;83;20989;-81
2022/01/04 12:14:34;;;;;;;4.53;3.30;;;;;;;8.66;100.00;96893.41;2136152;83;21573;-79
2022/01/04 12:17:34;;;;;;;5.35;3.95;;;;;;;8.63;100.00;96889.94;2136052;83;21635;-82
2022/01/04 12:20:35;;;;;;;5.40;3.77;;;;;;;8.58;100.00;96883.23;2136184;83;20973;-85
2022/01/04 12:23:36;;;;;;;5.72;3.92;;;;;;;8.57;100.00;96892.08;2136214;83;21021;-86
2022/01/04 12:26:38;;;;;;;5.42;4.58;;;;;;;8.54;100.00;96882.86;2136191;83;21005;-86
2022/01/04 12:29:39;;;;;;;5.08;4.28;;;;;;;8.53;100.00;96883.87;2136314;83;21066;-87
2022/01/04 12:32:40;;;;;;;5.45;3.98;;;;;;;8.50;100.00;96878.27;2136111;83;21049;-85
2022/01/04 12:35:41;;;;;;;7.25;4.25;;;;;;;8.47;100.00;96865.15;2136254;83;21013;-86
2022/01/04 12:38:41;;;;;;;6.42;4.78;;;;;;;8.44;100.00;96862.17;2136002;83;21028;-86
2022/01/04 12:41:42;;;;;;;7.17;5.35;;;;;;;8.41;100.00;96852.97;2109456;83;21004;-85
2022/01/04 12:44:43;;;;;;;5.20;4.70;;;;;;;8.40;100.00;96847.43;2136353;82;21517;-85
2022/01/04 12:47:44;;;;;;;7.83;4.97;;;;;;;8.41;100.00;96843.02;2136213;83;21100;-85
2022/01/04 12:50:45;;;;;;;6.87;5.00;;;;;;;8.41;100.00;96837.80;2136302;83;20981;-85
2022/01/04 12:53:46;;;;;;;9.15;6.00;;;;;;;8.41;100.00;96838.63;2136113;83;21504;-85
2022/01/04 12:56:46;;;;;;;8.10;5.83;;;;;;;8.42;100.00;96834.20;2136280;83;20973;-86
2022/01/04 12:59:47;;;;;;;7.17;5.92;;;;;;;8.43;100.00;96830.08;2136280;83;20954;-86
2022/01/04 13:02:49;;;;;;;8.43;6.22;;;;;;;8.42;100.00;96823.27;2136293;83;20994;-85
2022/01/04 13:05:49;;;;;;;9.28;6.70;;;;;;;8.43;100.00;96815.73;2136350;83;21065;-86
2022/01/04 13:08:50;;;;;;;10.82;7.08;;;;;;;8.39;100.00;96815.84;2136309;83;21001;-86
2022/01/04 13:11:51;;;;;;;9.53;7.15;;;;;;;8.42;100.00;96810.73;2136418;83;21025;-85
2022/01/04 13:14:52;;;;;;;9.78;7.45;;;;;;;8.44;100.00;96800.88;2136252;83;21061;-86
2022/01/04 13:17:55;;;;;;;13.30;8.53;;;;;;;8.46;100.00;96789.73;2136355;83;21464;-86
2022/01/04 13:20:55;;;;;;;15.25;10.03;;;;;;;8.48;100.00;96783.78;2136404;83;21062;-86
2022/01/04 13:23:56;;;;;;;15.50;9.75;;;;;;;8.49;100.00;96770.53;2136219;83;21045;-86
2022/01/04 13:26:57;;;;;;;17.15;11.38;;;;;;;8.51;100.00;96762.00;2136503;83;21018;-86
2022/01/04 13:29:58;;;;;;;12.90;8.68;;;;;;;8.53;100.00;96759.98;2136829;83;21084;-84
2022/01/04 13:32:59;;;;;;;11.45;8.55;;;;;;;8.54;100.00;96751.13;2136244;83;21014;-84
2022/01/04 13:35:59;;;;;;;10.93;8.45;;;;;;;8.53;100.00;96747.44;2136362;83;21021;-84
2022/01/04 13:39:00;;;;;;;14.03;8.50;;;;;;;8.52;100.00;96738.81;2136240;83;21040;-85
2022/01/04 13:42:01;;;;;;;8.30;7.42;;;;;;;8.53;100.00;96735.20;2136226;83;20994;-86
2022/01/04 13:45:02;;;;;;;9.35;5.92;;;;;;;8.56;100.00;96731.35;2138647;82;21112;-87
2022/01/04 13:48:03;;;;;;;9.20;6.83;;;;;;;8.57;100.00;96726.94;2200910;81;20953;-86
2022/01/04 13:51:03;;;;;;;12.13;8.55;;;;;;;8.59;100.00;96723.59;2200463;81;21538;-86
2022/01/04 13:54:04;;;;;;;8.38;6.90;;;;;;;8.60;100.00;96727.32;2200562;81;21139;-86
2022/01/04 13:57:05;;;;;;;8.90;6.60;;;;;;;8.62;100.00;96720.58;2200689;81;20993;-86
2022/01/04 14:00:06;;;;;;;9.43;6.78;;;;;;;8.65;100.00;96707.89;2200515;81;21027;-87
2022/01/04 14:03:07;;;;;;;10.98;6.83;;;;;;;8.68;100.00;96703.53;2200099;81;20993;-86
2022/01/04 14:06:08;;;;;;;9.70;6.15;;;;;;;8.68;100.00;96693.09;2200521;81;21316;-86
2022/01/04 14:09:08;;;;;;;11.18;7.83;;;;;;;8.72;100.00;96684.35;2200564;81;21027;-86
2022/01/04 14:12:10;;;;;;;9.53;7.70;;;;;;;8.76;100.00;96681.59;2200421;81;20937;-86